METAR AND TAF INFORMATION
METAR FOR HEAL
ADDS - METARS form results

(1800 UTC 23 May 2019)
Data provider http://aviationweather.gov/metar/data/
 
Forecast for: HEAL (EL ALAMEIN , EG)
Text: TAF HEAL 231700Z 2318/2424 32012KT CAVOK
Forecast period: 1800 UTC 23 May 2019 to 0000 UTC 25 May 2019
Forecast type: FROM: standard forecast or significant change
Winds: from the NW (320 degrees) at 14 MPH (12 knots; 6.2 m/s)
Visibility: 6 or more miles 10+ km)
Ceiling: unknown
Clouds: missing
Weather: NSW  (no significant weather)

 AIRPORT MAP

 RUNWAY INFORMATION
Runway 13 Runway length 11479 ft Runway width 148 ft
Runway elevation 143 ft Runway displaced threshold 0 ft Runway heading 130
Runway 31 Runway length 11479 ft Runway width 148 ft
Runway elevation 140 ft Runway displaced threshold 0 ft Runway heading 310

 AIRPORT FREQUENCIES
Type GND Name GND Frequency 121.9 MHZ
Type TWR Name TWR Frequency 123.4 MHZ

 AIRPORT NEAR NAVIGATION AIDS
Type VOR-DME Name El Daba Frequency 115700 KHZ



Powered by Virtual Airlines Manager [v2.6.2]